Time;durP1;ratioP1;P1;durP2;ratioP2;P2;SDS_P1;SDS_P2;PMS_P1;PMS_P2;Temp;Humidity;BMP_temperature;BMP_pressure;BME280_temperature;BME280_humidity;BME280_pressure;Samples;Min_cycle;Max_cycle;Signal;HPM_P1;HPM_P2
2022/03/21 00:00:27;;;;;;;14.43;10.57;;;;;;;6.78;38.53;103308.03;4955816;28;20231;-58
2022/03/21 00:02:54;;;;;;;14.43;10.87;;;;;;;6.72;36.08;103310.28;4956448;28;20239;-58
2022/03/21 00:05:20;;;;;;;14.37;10.50;;;;;;;6.55;35.70;103305.00;4963064;28;20260;-58
2022/03/21 00:07:47;;;;;;;14.87;10.57;;;;;;;6.54;36.36;103303.22;4961118;28;20553;-57
2022/03/21 00:10:14;;;;;;;13.20;10.40;;;;;;;6.54;35.69;103308.44;4963837;28;20373;-57
2022/03/21 00:12:41;;;;;;;13.00;10.90;;;;;;;6.59;36.49;103299.16;4960125;28;20245;-58
2022/03/21 00:15:10;;;;;;;11.77;10.10;;;;;;;6.63;35.71;103308.06;4963330;28;20334;-58
2022/03/21 00:17:41;;;;;;;14.00;11.50;;;;;;;6.51;35.82;103300.44;4963651;28;20262;-58
2022/03/21 00:20:09;;;;;;;10.90;9.43;;;;;;;6.61;36.19;103300.16;4961388;28;20249;-58
2022/03/21 00:22:36;;;;;;;15.43;10.30;;;;;;;6.66;36.64;103298.69;4964479;28;20272;-58
2022/03/21 00:25:03;;;;;;;13.73;10.13;;;;;;;6.55;37.70;103302.41;4957777;28;20340;-57
2022/03/21 00:27:29;;;;;;;13.57;10.10;;;;;;;6.60;36.94;103300.97;4962443;28;20595;-58
2022/03/21 00:29:55;;;;;;;16.30;11.20;;;;;;;6.55;37.91;103302.41;4957282;28;20289;-56
2022/03/21 00:32:22;;;;;;;14.60;9.87;;;;;;;6.67;38.41;103303.13;4962035;28;20265;-58
2022/03/21 00:34:50;;;;;;;12.17;9.40;;;;;;;6.58;36.76;103310.41;4949278;28;20235;-58
2022/03/21 00:37:16;;;;;;;14.67;10.43;;;;;;;6.48;36.51;103305.47;4953318;28;22489;-58
2022/03/21 00:39:43;;;;;;;14.40;11.33;;;;;;;6.58;36.35;103313.03;4954765;28;20298;-57
2022/03/21 00:42:10;;;;;;;15.27;11.17;;;;;;;6.58;37.62;103317.34;4935503;28;20294;-58
2022/03/21 00:44:36;;;;;;;13.87;10.00;;;;;;;6.74;37.41;103313.88;4948637;28;20234;-59
2022/03/21 00:47:03;;;;;;;13.07;9.70;;;;;;;6.64;37.39;103318.59;4949452;28;20239;-59
2022/03/21 00:49:29;;;;;;;16.27;11.10;;;;;;;6.60;37.38;103316.63;4947487;28;20242;-58
2022/03/21 00:51:57;;;;;;;14.33;10.43;;;;;;;6.51;37.46;103321.31;4961755;28;20679;-58
2022/03/21 00:54:24;;;;;;;14.30;10.87;;;;;;;6.54;38.95;103321.50;4961245;28;20333;-58
2022/03/21 00:56:50;;;;;;;14.77;11.60;;;;;;;6.66;38.68;103316.94;4968147;28;20771;-58
2022/03/21 00:59:16;;;;;;;12.67;11.27;;;;;;;6.57;38.44;103320.78;4958725;28;20239;-58
2022/03/21 01:01:43;;;;;;;15.97;11.83;;;;;;;6.38;37.60;103314.47;4962765;28;20242;-59
2022/03/21 01:04:09;;;;;;;12.90;9.67;;;;;;;6.32;37.41;103311.53;4963558;28;20231;-59
2022/03/21 01:06:36;;;;;;;13.10;10.73;;;;;;;6.39;38.61;103313.69;4961351;28;20234;-58
2022/03/21 01:09:04;;;;;;;16.13;10.17;;;;;;;6.32;38.46;103310.63;4964186;28;20650;-59
2022/03/21 01:11:30;;;;;;;13.87;10.13;;;;;;;6.34;37.68;103311.63;4961631;28;20341;-58
2022/03/21 01:13:57;;;;;;;13.97;10.83;;;;;;;6.14;39.04;103318.28;4965574;28;20242;-56
2022/03/21 01:16:23;;;;;;;10.83;9.57;;;;;;;6.33;37.84;103310.72;4955206;28;20289;-58
2022/03/21 01:18:50;;;;;;;11.53;10.33;;;;;;;6.25;39.46;103305.84;4957769;28;20708;-59
2022/03/21 01:21:16;;;;;;;13.77;10.50;;;;;;;6.39;37.68;103311.09;4946971;28;20239;-59
2022/03/21 01:23:44;;;;;;;16.27;11.93;;;;;;;6.34;37.90;103307.28;4962362;28;20238;-58
2022/03/21 01:26:12;;;;;;;13.40;10.83;;;;;;;6.19;39.16;103304.69;4954034;28;20289;-58
2022/03/21 01:28:39;;;;;;;13.97;10.47;;;;;;;6.25;38.31;103290.19;4968706;28;20270;-57
2022/03/21 01:31:05;;;;;;;11.40;9.70;;;;;;;6.27;38.66;103299.03;4954656;28;20365;-57
2022/03/21 01:33:33;;;;;;;12.40;11.13;;;;;;;6.29;38.51;103295.72;4965354;28;20297;-59
2022/03/21 01:35:59;;;;;;;15.23;10.83;;;;;;;6.11;38.20;103279.88;4962261;28;20293;-58
2022/03/21 01:38:26;;;;;;;14.10;10.97;;;;;;;6.35;38.45;103285.63;4967632;28;20661;-58
2022/03/21 01:40:52;;;;;;;12.63;11.33;;;;;;;6.18;37.87;103273.31;4959390;28;20235;-58
2022/03/21 01:43:20;;;;;;;11.27;9.73;;;;;;;6.21;37.40;103277.00;4967378;28;20243;-58
2022/03/21 01:45:46;;;;;;;13.57;10.07;;;;;;;6.22;37.83;103278.81;4962137;28;20449;-59
2022/03/21 01:48:13;;;;;;;14.90;10.47;;;;;;;6.27;39.03;103283.38;4967569;28;20240;-59
2022/03/21 01:50:40;;;;;;;15.40;10.80;;;;;;;6.03;38.47;103282.84;4963208;28;20297;-58
2022/03/21 01:55:53;;;;;;;14.67;10.10;;;;;;;5.83;37.99;103279.06;4924625;28;20231;-58
2022/03/21 01:58:21;;;;;;;12.80;9.97;;;;;;;5.89;38.26;103276.78;4968603;28;20234;-59
2022/03/21 02:00:48;;;;;;;12.10;9.90;;;;;;;5.62;38.48;103278.66;4948963;28;20236;-58
2022/03/21 02:03:15;;;;;;;13.10;10.77;;;;;;;5.43;38.77;103287.94;4954351;28;20242;-58
2022/03/21 02:05:43;;;;;;;11.27;10.20;;;;;;;5.77;38.25;103269.16;4961742;28;20269;-58
2022/03/21 02:08:10;;;;;;;11.57;10.37;;;;;;;5.85;38.23;103267.88;4964029;28;20245;-59
2022/03/21 02:10:36;;;;;;;11.93;8.53;;;;;;;5.77;40.15;103276.06;4961122;28;20321;-57
2022/03/21 02:13:02;;;;;;;12.60;10.47;;;;;;;5.82;38.17;103282.44;4964672;28;20242;-58
2022/03/21 02:15:30;;;;;;;12.80;10.17;;;;;;;6.07;39.55;103277.91;4963222;28;20305;-58
2022/03/21 02:18:01;;;;;;;12.93;9.23;;;;;;;5.97;38.16;103268.66;4965294;28;20239;-58
2022/03/21 02:20:29;;;;;;;14.13;9.43;;;;;;;5.90;38.71;103271.69;4966042;28;20227;-57
2022/03/21 02:23:01;;;;;;;11.90;10.17;;;;;;;5.62;39.38;103263.94;4964001;28;20234;-57
2022/03/21 02:25:31;;;;;;;12.67;9.50;;;;;;;5.80;39.89;103271.03;4966306;28;20237;-57
2022/03/21 02:27:59;;;;;;;13.73;8.90;;;;;;;5.65;38.77;103261.50;4964923;28;20422;-58
2022/03/21 02:30:28;;;;;;;13.00;10.67;;;;;;;5.50;38.54;103260.56;4964180;28;20325;-58
2022/03/21 02:32:55;;;;;;;14.23;10.97;;;;;;;5.47;39.32;103265.59;4965045;28;20296;-59
2022/03/21 02:35:22;;;;;;;11.97;10.10;;;;;;;5.89;39.66;103271.56;4963695;28;20743;-57
2022/03/21 02:37:49;;;;;;;11.30;9.80;;;;;;;6.00;40.76;103267.91;4962792;28;20596;-59
2022/03/21 02:40:16;;;;;;;14.30;10.80;;;;;;;6.15;39.92;103266.22;4965218;28;20304;-59
2022/03/21 02:42:44;;;;;;;11.60;9.70;;;;;;;5.90;38.91;103273.38;4965648;28;20231;-58
2022/03/21 02:45:10;;;;;;;15.03;10.67;;;;;;;5.62;38.83;103274.34;4965024;28;20238;-58
2022/03/21 02:47:37;;;;;;;11.83;9.80;;;;;;;5.54;38.63;103270.34;4964268;28;20227;-58
2022/03/21 02:50:04;;;;;;;12.57;10.17;;;;;;;5.82;40.19;103275.50;4965635;28;20988;-57
2022/03/21 02:52:31;;;;;;;12.63;9.70;;;;;;;5.87;39.78;103271.50;4964201;28;20345;-58
2022/03/21 02:54:57;;;;;;;17.00;10.47;;;;;;;5.65;38.99;103274.53;4961538;28;20237;-58
2022/03/21 02:57:24;;;;;;;11.17;9.97;;;;;;;5.49;39.06;103266.59;4963730;28;20281;-58
2022/03/21 02:59:52;;;;;;;13.03;10.20;;;;;;;5.74;41.04;103274.16;4963865;28;20241;-58
2022/03/21 03:02:18;;;;;;;11.60;10.13;;;;;;;5.85;40.65;103272.19;4962620;28;20586;-58
2022/03/21 03:04:45;;;;;;;13.23;10.20;;;;;;;5.77;40.85;103273.47;4961617;28;20376;-58
2022/03/21 03:07:11;;;;;;;16.37;11.23;;;;;;;5.55;39.33;103266.97;4962974;28;20846;-58
2022/03/21 03:09:38;;;;;;;14.97;11.67;;;;;;;5.41;40.84;103275.66;4961885;28;20236;-59
2022/03/21 03:12:05;;;;;;;11.10;9.97;;;;;;;5.21;41.12;103279.63;4962608;28;20246;-58
2022/03/21 03:14:31;;;;;;;12.80;11.50;;;;;;;5.52;41.84;103276.31;4965601;28;20238;-58
2022/03/21 03:16:59;;;;;;;12.10;9.90;;;;;;;5.55;40.58;103272.19;4964249;28;20655;-58
2022/03/21 03:19:26;;;;;;;13.50;11.43;;;;;;;5.56;41.80;103268.75;4964478;28;20711;-58
2022/03/21 03:21:53;;;;;;;11.20;9.87;;;;;;;5.70;42.17;103266.97;4962398;28;20734;-57
2022/03/21 03:24:20;;;;;;;16.20;11.57;;;;;;;5.71;40.70;103269.66;4964718;28;20280;-58
2022/03/21 03:26:47;;;;;;;13.90;11.17;;;;;;;5.39;39.65;103274.66;4964636;28;20755;-59
2022/03/21 03:29:13;;;;;;;11.97;10.60;;;;;;;5.32;40.76;103268.16;4965469;28;20285;-58
2022/03/21 03:31:40;;;;;;;13.03;10.67;;;;;;;5.04;40.33;103273.38;4960289;28;20245;-58
2022/03/21 03:34:07;;;;;;;13.07;10.70;;;;;;;5.19;41.44;103282.13;4962108;28;20235;-59
2022/03/21 03:36:34;;;;;;;13.30;10.67;;;;;;;5.13;42.07;103276.56;4964401;28;20253;-59
2022/03/21 03:39:00;;;;;;;14.90;11.13;;;;;;;5.21;42.29;103275.31;4986886;23;20236;-53
2022/03/21 03:41:28;;;;;;;13.33;10.73;;;;;;;5.14;40.31;103273.16;5016740;28;20233;-52
2022/03/21 03:43:54;;;;;;;17.57;12.33;;;;;;;5.04;41.00;103275.97;5021075;28;20670;-51
2022/03/21 03:46:21;;;;;;;14.93;11.23;;;;;;;4.98;41.07;103270.38;5027728;28;20283;-52
2022/03/21 03:48:47;;;;;;;16.53;12.63;;;;;;;5.02;40.93;103269.78;5019064;28;20247;-51
2022/03/21 03:51:15;;;;;;;16.73;11.67;;;;;;;4.96;42.01;103266.81;4996921;28;20241;-52
2022/03/21 03:53:42;;;;;;;17.40;11.67;;;;;;;4.85;40.59;103266.13;4996130;28;20237;-52
2022/03/21 03:56:09;;;;;;;15.83;12.00;;;;;;;4.80;41.20;103267.53;4992157;28;20773;-50
2022/03/21 03:58:36;;;;;;;15.77;12.40;;;;;;;4.80;41.22;103267.53;4998072;28;20283;-52
2022/03/21 04:01:04;;;;;;;16.37;12.53;;;;;;;4.76;42.33;103269.03;5003542;28;20221;-52
2022/03/21 04:03:45;;;;;;;15.37;12.93;;;;;;;4.83;41.29;103264.22;5002943;28;20288;-52
2022/03/21 04:06:11;;;;;;;14.23;12.10;;;;;;;4.84;40.57;103255.59;5002235;28;20312;-51
2022/03/21 04:08:39;;;;;;;16.07;12.17;;;;;;;5.03;42.65;103262.06;5002848;28;20659;-52
2022/03/21 04:11:06;;;;;;;17.07;12.43;;;;;;;5.09;42.44;103253.75;4986517;28;20856;-52
2022/03/21 04:13:32;;;;;;;17.47;13.70;;;;;;;4.95;42.26;103260.69;5002915;28;20284;-50
2022/03/21 04:15:58;;;;;;;13.27;11.50;;;;;;;5.07;41.60;103263.16;4993523;28;20336;-51
2022/03/21 04:18:25;;;;;;;18.17;13.00;;;;;;;5.16;43.12;103265.41;5000196;28;20257;-54
2022/03/21 04:20:52;;;;;;;17.03;12.00;;;;;;;4.81;41.45;103261.53;4995397;28;20235;-53
2022/03/21 04:23:18;;;;;;;17.97;13.57;;;;;;;4.81;41.29;103261.53;4990872;28;20302;-53
2022/03/21 04:25:46;;;;;;;19.73;13.43;;;;;;;4.79;41.20;103263.13;4990324;28;20265;-52
2022/03/21 04:28:14;;;;;;;19.00;15.13;;;;;;;4.72;42.84;103267.03;4998896;28;20249;-52
2022/03/21 04:30:42;;;;;;;16.10;12.80;;;;;;;5.01;43.25;103270.56;5002960;28;20328;-55
2022/03/21 04:33:09;;;;;;;15.10;12.50;;;;;;;5.10;42.67;103265.94;4990227;28;20726;-52
2022/03/21 04:35:36;;;;;;;22.67;14.37;;;;;;;5.10;42.68;103265.06;4996555;28;20243;-53
2022/03/21 04:38:02;;;;;;;19.53;14.43;;;;;;;4.86;41.50;103267.91;5002392;28;20713;-52
2022/03/21 04:40:29;;;;;;;19.17;14.37;;;;;;;4.74;41.65;103270.66;4992696;28;20245;-52
2022/03/21 04:42:57;;;;;;;16.87;13.97;;;;;;;4.86;42.29;103274.84;4984159;28;21011;-53
2022/03/21 04:45:23;;;;;;;20.83;14.80;;;;;;;4.74;42.36;103273.25;4984921;28;20240;-52
2022/03/21 04:47:50;;;;;;;19.83;14.03;;;;;;;4.93;42.97;103277.00;4983079;28;20244;-52
2022/03/21 04:50:16;;;;;;;19.40;14.67;;;;;;;5.05;40.93;103276.88;4986403;28;20292;-53
2022/03/21 04:52:43;;;;;;;22.43;15.57;;;;;;;4.87;41.81;103277.50;4982770;28;20244;-53
2022/03/21 04:55:09;;;;;;;19.23;14.23;;;;;;;4.94;43.38;103274.50;4983453;28;20655;-52
2022/03/21 04:57:36;;;;;;;19.40;13.67;;;;;;;5.07;42.43;103275.28;4984334;28;20238;-51
2022/03/21 05:00:05;;;;;;;19.53;13.83;;;;;;;4.77;40.86;103280.34;4985470;28;20265;-52
2022/03/21 05:02:32;;;;;;;18.07;14.13;;;;;;;5.08;42.83;103282.28;4985921;28;20322;-53
2022/03/21 05:04:58;;;;;;;20.33;14.43;;;;;;;4.75;42.33;103281.97;4989878;28;20242;-52
2022/03/21 05:07:25;;;;;;;19.97;14.27;;;;;;;4.71;41.09;103286.06;4993048;28;20229;-51
2022/03/21 05:09:51;;;;;;;20.20;15.03;;;;;;;4.83;41.77;103287.66;5007372;28;20243;-51
2022/03/21 05:12:18;;;;;;;20.57;14.77;;;;;;;4.79;43.30;103295.25;4989928;28;20246;-52
2022/03/21 05:14:45;;;;;;;21.53;15.63;;;;;;;4.38;40.91;103295.19;4998007;28;20236;-54
2022/03/21 05:17:17;;;;;;;21.57;16.60;;;;;;;4.41;42.47;103284.09;5000553;28;20230;-50
2022/03/21 05:19:44;;;;;;;21.30;14.00;;;;;;;4.43;42.54;103296.41;5002300;28;20237;-51
2022/03/21 05:22:10;;;;;;;19.10;15.23;;;;;;;4.34;42.06;103292.28;5001539;28;20222;-54
2022/03/21 05:35:52;;;;;;;24.23;15.53;;;;;;;4.23;43.05;103289.88;5006182;28;20469;-51
2022/03/21 05:35:55;;;;;;;18.97;15.57;;;;;;;4.28;43.08;103293.69;5007070;28;20252;-52
2022/03/21 05:38:22;;;;;;;21.87;14.93;;;;;;;4.39;43.13;103285.66;5006160;28;20332;-52
2022/03/21 05:40:49;;;;;;;17.03;13.80;;;;;;;4.36;42.85;103295.91;5008870;28;20720;-53
2022/03/21 05:43:15;;;;;;;19.57;14.37;;;;;;;4.23;42.90;103289.88;5006353;28;20233;-54
2022/03/21 05:45:42;;;;;;;21.33;15.53;;;;;;;4.57;42.74;103294.69;4994495;28;20323;-53
2022/03/21 05:50:53;;;;;;;19.30;14.53;;;;;;;4.92;41.51;103291.75;4996677;28;20249;-53
2022/03/21 05:53:20;;;;;;;19.50;13.27;;;;;;;4.75;41.71;103288.06;4986423;28;20241;-53
2022/03/21 05:55:47;;;;;;;19.00;14.47;;;;;;;4.53;42.65;103295.31;4989109;28;20256;-51
2022/03/21 05:58:13;;;;;;;18.10;14.20;;;;;;;4.56;42.33;103303.28;4996944;28;20233;-51
2022/03/21 06:00:40;;;;;;;18.57;14.07;;;;;;;4.44;43.09;103299.88;4991146;28;20240;-52
2022/03/21 06:03:08;;;;;;;26.00;14.93;;;;;;;4.51;42.20;103302.09;4998526;28;20245;-51
2022/03/21 06:05:36;;;;;;;20.57;14.43;;;;;;;4.54;42.23;103307.50;5008904;28;20419;-52
2022/03/21 06:08:02;;;;;;;18.67;13.70;;;;;;;4.82;41.95;103304.06;4987683;28;20245;-52
2022/03/21 06:10:29;;;;;;;17.23;13.27;;;;;;;4.82;41.58;103309.28;4987758;28;20538;-52
2022/03/21 06:12:55;;;;;;;24.23;14.30;;;;;;;4.71;41.74;103309.50;4987162;28;20245;-52
2022/03/21 06:15:22;;;;;;;18.20;13.13;;;;;;;4.77;40.72;103317.69;4986113;28;20239;-54
2022/03/21 06:17:48;;;;;;;18.60;13.37;;;;;;;4.84;42.00;103323.28;4986172;28;20742;-52
2022/03/21 06:20:16;;;;;;;17.57;13.33;;;;;;;4.73;40.24;103326.09;4987069;28;20244;-53
2022/03/21 06:22:44;;;;;;;18.50;13.37;;;;;;;4.64;39.79;103327.22;4987642;28;20246;-53
2022/03/21 06:25:11;;;;;;;17.07;13.40;;;;;;;4.67;40.64;103325.72;5006020;28;20708;-53
2022/03/21 06:27:38;;;;;;;18.07;13.23;;;;;;;5.29;40.87;103321.78;4985534;28;20233;-53
2022/03/21 06:30:06;;;;;;;19.97;13.23;;;;;;;5.21;41.09;103321.31;4978933;28;20241;-53
2022/03/21 06:32:33;;;;;;;17.40;12.13;;;;;;;5.16;41.16;103330.50;4984755;28;20265;-53
2022/03/21 06:34:59;;;;;;;16.70;14.03;;;;;;;5.22;39.42;103325.69;4984467;28;20237;-52
2022/03/21 06:37:25;;;;;;;16.93;13.50;;;;;;;5.23;38.52;103325.81;4980350;28;20606;-55
2022/03/21 06:39:53;;;;;;;18.97;13.53;;;;;;;5.22;39.49;103326.59;4982655;28;20246;-52
2022/03/21 06:42:21;;;;;;;19.53;14.23;;;;;;;5.04;39.84;103328.06;4984797;28;20238;-53
2022/03/21 06:44:48;;;;;;;14.97;11.70;;;;;;;5.14;39.72;103327.81;4998137;28;20225;-52
2022/03/21 06:47:14;;;;;;;19.03;13.80;;;;;;;5.33;41.15;103326.38;5000506;28;20310;-53
2022/03/21 06:49:40;;;;;;;18.17;13.60;;;;;;;5.44;40.59;103331.47;5000232;28;20249;-53
2022/03/21 06:52:08;;;;;;;17.37;13.47;;;;;;;5.34;39.78;103330.78;5005525;28;20241;-54
2022/03/21 06:54:35;;;;;;;18.37;13.03;;;;;;;5.32;38.48;103335.88;4993766;28;20240;-51
2022/03/21 06:57:04;;;;;;;13.47;11.70;;;;;;;5.15;39.43;103331.31;4995157;28;20225;-51
2022/03/21 06:59:30;;;;;;;15.60;12.17;;;;;;;5.28;39.56;103333.91;5001966;28;20233;-51
2022/03/21 07:01:57;;;;;;;19.23;13.13;;;;;;;5.35;38.64;103335.19;4984846;28;20226;-51
2022/03/21 07:04:25;;;;;;;18.43;12.77;;;;;;;5.49;38.54;103331.72;4987427;28;20623;-54
2022/03/21 07:06:52;;;;;;;23.87;13.60;;;;;;;5.45;38.50;103337.56;4997947;28;20259;-55
2022/03/21 07:09:18;;;;;;;16.73;12.80;;;;;;;5.56;37.51;103331.31;5004866;28;20237;-54
2022/03/21 07:11:45;;;;;;;16.87;12.57;;;;;;;5.21;37.36;103337.81;5005186;28;20316;-54
2022/03/21 07:14:13;;;;;;;17.10;12.80;;;;;;;5.37;37.51;103334.50;5003739;28;20656;-54
2022/03/21 07:16:39;;;;;;;19.60;12.60;;;;;;;5.40;38.44;103338.97;4997975;28;20248;-54
2022/03/21 07:19:06;;;;;;;16.53;11.93;;;;;;;5.56;37.40;103343.44;5000425;28;20255;-53
2022/03/21 07:21:32;;;;;;;14.23;10.87;;;;;;;5.52;37.49;103342.34;4999831;28;20869;-54
2022/03/21 07:23:59;;;;;;;22.60;13.23;;;;;;;5.52;37.38;103347.56;5003857;28;20244;-53
2022/03/21 07:26:25;;;;;;;16.33;12.03;;;;;;;5.65;36.79;103341.38;4992081;28;20240;-54
2022/03/21 07:28:52;;;;;;;16.10;11.80;;;;;;;5.59;36.31;103344.53;4997455;28;20249;-55
2022/03/21 07:31:20;;;;;;;15.67;11.53;;;;;;;5.70;36.26;103340.84;4984806;28;20963;-52
2022/03/21 07:33:46;;;;;;;15.83;12.43;;;;;;;5.69;36.63;103336.47;4986083;28;20241;-54
2022/03/21 07:36:12;;;;;;;16.93;12.77;;;;;;;5.86;37.58;103342.69;4985229;28;20233;-51
2022/03/21 07:38:39;;;;;;;15.60;11.40;;;;;;;6.04;35.97;103342.94;4989796;28;20237;-50
2022/03/21 07:41:07;;;;;;;14.17;11.20;;;;;;;6.08;36.13;103339.69;4985235;28;20237;-54
2022/03/21 07:43:33;;;;;;;15.63;11.17;;;;;;;6.32;35.89;103335.03;4991125;28;20225;-52
2022/03/21 07:48:46;;;;;;;14.60;10.97;;;;;;;6.43;35.11;103322.59;4996326;28;20299;-52
2022/03/21 07:51:13;;;;;;;15.00;10.67;;;;;;;6.49;33.85;103327.25;5004990;28;20229;-54
2022/03/21 07:53:39;;;;;;;13.23;11.20;;;;;;;6.55;34.37;103320.66;5001599;28;20308;-55
2022/03/21 07:56:06;;;;;;;13.23;10.83;;;;;;;6.92;37.31;103330.59;4988355;28;20229;-51
2022/03/21 07:58:33;;;;;;;13.63;10.63;;;;;;;6.84;34.41;103327.53;4984592;28;20229;-52
2022/03/21 08:01:00;;;;;;;16.53;9.77;;;;;;;7.10;33.34;103326.38;4990968;28;20261;-51
2022/03/21 08:03:27;;;;;;;15.87;10.07;;;;;;;7.26;33.25;103327.19;5000350;28;20252;-54
2022/03/21 08:05:57;;;;;;;14.17;9.70;;;;;;;7.20;32.77;103330.41;5004669;28;20236;-51
2022/03/21 08:08:23;;;;;;;17.37;11.37;;;;;;;7.44;33.89;103323.00;5004857;28;20291;-52
2022/03/21 08:10:50;;;;;;;14.53;10.20;;;;;;;7.55;33.84;103337.53;5003743;28;20260;-52
2022/03/21 08:13:17;;;;;;;11.00;9.20;;;;;;;7.67;32.01;103341.59;4994893;28;20237;-51
2022/03/21 08:15:44;;;;;;;12.70;10.57;;;;;;;7.58;32.11;103335.09;4996157;28;20584;-51
2022/03/21 08:18:11;;;;;;;12.50;9.33;;;;;;;7.70;32.40;103326.06;4995519;28;20233;-52
2022/03/21 08:20:39;;;;;;;12.23;9.47;;;;;;;7.83;32.79;103333.75;4996027;28;20723;-51
2022/03/21 08:23:08;;;;;;;15.50;10.10;;;;;;;7.95;32.64;103329.16;5003915;28;20233;-52
2022/03/21 08:25:35;;;;;;;12.43;10.23;;;;;;;8.09;31.73;103328.13;4996949;28;20245;-53
2022/03/21 08:28:02;;;;;;;10.67;8.90;;;;;;;8.15;31.39;103324.94;5003312;28;21854;-50
2022/03/21 08:30:32;;;;;;;12.40;9.60;;;;;;;8.17;31.19;103322.38;4990354;28;20231;-52
2022/03/21 08:32:59;;;;;;;21.87;9.67;;;;;;;8.28;32.04;103311.66;4990878;28;20273;-53
2022/03/21 08:35:26;;;;;;;12.90;10.17;;;;;;;8.40;30.78;103319.25;4998643;28;20234;-51
2022/03/21 08:37:53;;;;;;;11.20;8.50;;;;;;;8.31;31.34;103305.66;4996591;28;20291;-53
2022/03/21 08:40:21;;;;;;;10.00;8.40;;;;;;;8.51;30.54;103304.94;4988687;28;20245;-52
2022/03/21 08:42:47;;;;;;;14.00;8.60;;;;;;;8.28;30.36;103305.50;4997877;28;20239;-51
2022/03/21 08:45:15;;;;;;;11.47;8.33;;;;;;;8.36;30.41;103301.56;4999845;28;20276;-52
2022/03/21 08:47:42;;;;;;;8.83;7.63;;;;;;;8.51;29.49;103298.81;4992333;28;20238;-53
2022/03/21 08:50:09;;;;;;;11.50;7.50;;;;;;;8.56;29.54;103287.75;4988241;28;20241;-52
2022/03/21 08:52:36;;;;;;;9.37;7.53;;;;;;;8.55;29.67;103314.75;5008087;28;20614;-52
2022/03/21 08:55:04;;;;;;;11.90;8.13;;;;;;;8.56;28.90;103282.53;5000849;28;20302;-51
2022/03/21 08:57:32;;;;;;;12.80;7.70;;;;;;;8.60;28.95;103292.31;4996803;28;20245;-53
2022/03/21 08:59:59;;;;;;;9.50;8.13;;;;;;;8.71;29.70;103298.06;5007183;28;20241;-51
2022/03/21 09:02:26;;;;;;;12.27;8.77;;;;;;;8.58;28.18;103280.84;4999320;28;20237;-51
2022/03/21 09:04:53;;;;;;;9.50;7.23;;;;;;;8.70;28.52;103287.50;5007582;28;20244;-52
2022/03/21 09:07:19;;;;;;;11.57;7.50;;;;;;;8.87;28.39;103280.44;4999998;28;20295;-50
2022/03/21 09:09:46;;;;;;;8.53;6.90;;;;;;;9.13;29.00;103279.94;4995921;28;20793;-53
2022/03/21 09:12:13;;;;;;;9.37;7.33;;;;;;;9.25;27.44;103280.50;4992411;28;20287;-51
2022/03/21 09:14:41;;;;;;;8.07;7.20;;;;;;;9.20;28.11;103286.38;4988703;28;20250;-52
2022/03/21 09:17:07;;;;;;;9.17;7.40;;;;;;;9.47;28.43;103271.84;4999165;28;20234;-51
2022/03/21 09:19:34;;;;;;;8.00;7.13;;;;;;;9.33;27.53;103279.09;4995708;28;20245;-53
2022/03/21 09:22:01;;;;;;;13.73;8.13;;;;;;;9.38;27.28;103271.47;5006082;28;20237;-52
2022/03/21 09:24:29;;;;;;;8.83;7.00;;;;;;;9.33;27.94;103284.34;4992476;28;20292;-51
2022/03/21 09:26:55;;;;;;;9.23;7.23;;;;;;;9.45;27.66;103277.88;5006126;28;20320;-51
2022/03/21 09:29:23;;;;;;;11.63;7.93;;;;;;;9.50;28.08;103273.72;5000223;28;20658;-52
2022/03/21 09:31:51;;;;;;;9.83;7.70;;;;;;;9.51;28.56;103279.06;4999437;28;20245;-52
2022/03/21 09:34:18;;;;;;;11.07;8.13;;;;;;;9.88;27.10;103278.00;4988181;28;20245;-53
2022/03/21 09:36:45;;;;;;;15.00;8.90;;;;;;;9.91;27.08;103275.53;4987707;28;20234;-51
2022/03/21 09:39:12;;;;;;;11.37;8.67;;;;;;;10.01;27.04;103267.22;5001917;23;20917;-56
2022/03/21 09:41:39;;;;;;;9.40;7.43;;;;;;;10.38;28.24;103268.75;5006601;28;20624;-57
2022/03/21 09:44:09;;;;;;;8.70;7.83;;;;;;;10.53;27.19;103271.13;5014293;28;20256;-55
2022/03/21 09:46:35;;;;;;;10.80;8.77;;;;;;;10.42;27.09;103270.66;5002013;28;20338;-56
2022/03/21 09:49:04;;;;;;;11.70;8.20;;;;;;;10.54;27.94;103266.75;5001364;28;20300;-62
2022/03/21 09:51:31;;;;;;;8.67;7.73;;;;;;;10.48;27.76;103259.50;4979424;28;20226;-56
2022/03/21 09:54:02;;;;;;;12.53;9.20;;;;;;;10.48;27.28;103263.03;4997152;28;20297;-56
2022/03/21 09:56:29;;;;;;;12.50;8.00;;;;;;;10.71;26.55;103263.06;4972544;28;20321;-57
2022/03/21 09:58:59;;;;;;;10.37;7.97;;;;;;;10.49;28.41;103251.72;4983981;28;20770;-56
2022/03/21 10:01:26;;;;;;;9.27;7.77;;;;;;;10.59;28.23;103252.06;4973386;28;20238;-57
2022/03/21 10:03:53;;;;;;;15.03;8.53;;;;;;;10.60;26.81;103265.28;4971475;28;20301;-56
2022/03/21 10:06:28;;;;;;;11.43;8.53;;;;;;;10.84;27.73;103254.78;4984002;28;20241;-58
2022/03/21 10:09:05;;;;;;;8.63;7.50;;;;;;;11.04;27.56;103257.31;4984958;28;20229;-56
2022/03/21 10:11:32;;;;;;;9.97;8.13;;;;;;;11.01;26.44;103249.28;4984434;28;20229;-57
2022/03/21 10:14:00;;;;;;;13.03;8.03;;;;;;;10.87;25.02;103254.91;4985740;28;20727;-57
2022/03/21 10:16:26;;;;;;;9.80;7.67;;;;;;;10.72;25.35;103246.44;4986822;28;20236;-57
2022/03/21 10:18:57;;;;;;;10.80;8.50;;;;;;;10.70;25.49;103250.75;4986670;28;20233;-57
2022/03/21 10:21:27;;;;;;;10.07;7.20;;;;;;;10.65;25.38;103247.06;4985100;28;20229;-57
2022/03/21 10:24:02;;;;;;;9.00;7.90;;;;;;;10.56;25.00;103260.72;4983591;28;20734;-57
2022/03/21 10:26:31;;;;;;;15.70;8.50;;;;;;;10.43;25.56;103246.22;4986216;28;20226;-56
2022/03/21 10:28:58;;;;;;;12.50;7.07;;;;;;;10.43;25.23;103258.44;4979650;28;20234;-56
2022/03/21 10:31:36;;;;;;;8.63;7.70;;;;;;;10.44;25.20;103250.63;4983937;28;20313;-56
2022/03/21 10:34:03;;;;;;;11.23;8.13;;;;;;;10.41;25.89;103253.13;4986236;28;20299;-57
2022/03/21 10:36:31;;;;;;;9.70;6.93;;;;;;;10.60;26.23;103243.34;4985094;28;20228;-55
2022/03/21 10:39:06;;;;;;;9.30;8.10;;;;;;;10.73;26.06;103245.59;4984114;28;20250;-57
2022/03/21 10:41:34;;;;;;;8.60;6.60;;;;;;;10.92;26.48;103241.97;4985687;28;20268;-56
2022/03/21 10:44:01;;;;;;;7.07;6.37;;;;;;;11.05;25.54;103238.06;4985791;28;20234;-54
2022/03/21 10:46:28;;;;;;;9.97;7.97;;;;;;;10.93;25.43;103238.50;4984456;28;20273;-56
2022/03/21 10:49:01;;;;;;;13.90;7.37;;;;;;;11.08;24.94;103239.06;4986391;28;20248;-60
2022/03/21 10:51:47;;;;;;;8.63;7.73;;;;;;;10.99;24.90;103251.88;4986369;28;20746;-56
2022/03/21 10:54:36;;;;;;;8.77;7.40;;;;;;;10.94;25.62;103246.44;4970441;28;20254;-57
2022/03/21 10:57:02;;;;;;;9.90;7.60;;;;;;;11.03;25.10;103245.00;4986560;28;20241;-58
2022/03/21 10:59:29;;;;;;;10.95;8.40;;;;;;;11.26;26.71;103236.22;4983807;28;20434;-56
2022/03/21 11:02:10;;;;;;;8.98;7.45;;;;;;;11.27;25.36;103245.91;4981837;28;20242;-58
2022/03/21 11:04:38;;;;;;;13.02;9.68;;;;;;;11.52;25.11;103236.28;4971238;28;20864;-58
2022/03/21 11:07:08;;;;;;;11.27;8.73;;;;;;;11.43;25.46;103253.50;4984817;28;20442;-59
2022/03/21 11:09:35;;;;;;;10.03;8.10;;;;;;;11.29;26.74;103243.31;4981915;28;20241;-58
2022/03/21 11:12:02;;;;;;;9.77;8.77;;;;;;;11.25;25.75;103237.06;4982924;28;20441;-57
2022/03/21 11:14:30;;;;;;;9.55;8.57;;;;;;;11.38;25.84;103228.78;4990090;28;20460;-58
2022/03/21 11:16:56;;;;;;;9.63;8.63;;;;;;;11.47;25.27;103218.56;4985019;28;20715;-56
2022/03/21 11:19:25;;;;;;;9.20;7.28;;;;;;;11.42;25.98;103219.25;4989667;28;20230;-57
2022/03/21 11:21:52;;;;;;;11.70;7.57;;;;;;;11.71;24.96;103228.16;4983209;28;20238;-58
2022/03/21 11:24:20;;;;;;;7.70;7.00;;;;;;;11.71;25.37;103223.78;4983737;28;20240;-56
2022/03/21 11:26:52;;;;;;;9.48;7.97;;;;;;;11.59;26.89;103222.50;4976552;28;20230;-57
2022/03/21 11:29:30;;;;;;;8.60;7.25;;;;;;;11.61;25.97;103211.16;4979833;28;20238;-57
2022/03/21 11:32:03;;;;;;;10.05;7.63;;;;;;;11.58;25.97;103210.16;4962275;28;20230;-56
2022/03/21 11:34:41;;;;;;;12.07;9.32;;;;;;;11.61;25.98;103215.53;4982874;28;20430;-61
2022/03/21 11:37:24;;;;;;;8.48;7.22;;;;;;;11.84;24.12;103217.25;4984505;28;20845;-62